createdAt,value
2022-12-12T00:00:53.622Z,11.40
2022-12-12T00:03:21.880Z,11.20
2022-12-12T00:05:50.146Z,11.70
2022-12-12T00:08:18.381Z,12.03
2022-12-12T00:10:46.558Z,11.60
2022-12-12T00:13:14.619Z,10.67
2022-12-12T00:15:44.134Z,11.70
2022-12-12T00:18:12.249Z,13.40
2022-12-12T00:20:40.276Z,10.80
2022-12-12T00:23:08.356Z,11.70
2022-12-12T00:25:36.683Z,11.37
2022-12-12T00:28:05.021Z,11.73
2022-12-12T00:30:33.087Z,12.07
2022-12-12T00:33:02.464Z,11.80
2022-12-12T00:35:36.636Z,12.90
2022-12-12T00:38:05.045Z,11.93
2022-12-12T00:40:33.209Z,11.77
2022-12-12T00:43:01.280Z,12.90
2022-12-12T00:45:29.359Z,11.40
2022-12-12T00:47:57.451Z,11.93
2022-12-12T00:50:26.981Z,12.07
2022-12-12T00:52:56.526Z,12.03
2022-12-12T00:55:25.015Z,11.90
2022-12-12T00:57:56.157Z,11.97
2022-12-12T01:00:24.595Z,12.50
2022-12-12T01:02:52.692Z,11.87
2022-12-12T01:05:20.804Z,11.93
2022-12-12T01:07:50.226Z,12.30
2022-12-12T01:10:18.501Z,11.67
2022-12-12T01:12:46.696Z,11.60
2022-12-12T01:15:17.803Z,10.80
2022-12-12T01:17:45.831Z,11.83
2022-12-12T01:20:18.304Z,12.50
2022-12-12T01:22:46.548Z,11.17
2022-12-12T01:25:16.269Z,11.40
2022-12-12T01:27:45.794Z,11.10
2022-12-12T01:30:14.541Z,12.20
2022-12-12T01:32:45.735Z,12.67
2022-12-12T01:35:14.127Z,12.37
2022-12-12T01:40:29.009Z,11.37
2022-12-12T01:42:57.066Z,12.47
2022-12-12T01:46:02.726Z,12.63
2022-12-12T01:48:33.523Z,11.60
2022-12-12T01:51:03.859Z,12.50
2022-12-12T01:53:32.061Z,13.37
2022-12-12T01:56:01.582Z,12.00
2022-12-12T01:58:29.619Z,12.80
2022-12-12T02:00:57.816Z,12.60
2022-12-12T02:03:25.946Z,12.43
2022-12-12T02:05:56.142Z,13.00
2022-12-12T02:08:24.417Z,12.57
2022-12-12T02:10:52.532Z,12.77
2022-12-12T02:13:23.290Z,12.30
2022-12-12T02:15:57.412Z,12.50
2022-12-12T02:18:27.912Z,11.77
2022-12-12T02:21:01.894Z,11.60
2022-12-12T02:24:07.686Z,11.63
2022-12-12T02:27:23.489Z,11.43
2022-12-12T02:30:15.053Z,12.00
2022-12-12T02:32:52.105Z,11.13
2022-12-12T02:35:30.391Z,12.57
2022-12-12T02:38:01.536Z,12.10
2022-12-12T02:40:32.909Z,12.00
2022-12-12T02:43:05.073Z,12.00
2022-12-12T02:45:35.688Z,12.07
2022-12-12T02:48:08.216Z,11.50
2022-12-12T02:50:36.260Z,12.10
2022-12-12T02:53:07.530Z,12.43
2022-12-12T02:55:36.647Z,13.10
2022-12-12T02:58:05.078Z,12.77
2022-12-12T03:00:35.500Z,11.50
2022-12-12T03:03:30.358Z,12.43
2022-12-12T03:06:24.768Z,11.67
2022-12-12T03:09:12.419Z,12.07
2022-12-12T03:11:45.007Z,11.87
2022-12-12T03:14:15.134Z,11.80
2022-12-12T03:16:46.003Z,12.00
2022-12-12T03:19:17.818Z,12.20
2022-12-12T03:21:48.103Z,11.73
2022-12-12T03:24:18.908Z,11.97
2022-12-12T03:26:48.673Z,11.80
2022-12-12T03:29:17.637Z,12.47
2022-12-12T03:31:48.148Z,11.30
2022-12-12T03:34:18.941Z,11.90
2022-12-12T03:36:49.090Z,12.47
2022-12-12T03:39:19.913Z,12.13
2022-12-12T03:41:49.827Z,11.87
2022-12-12T03:44:18.685Z,11.13
2022-12-12T03:46:49.795Z,11.07
2022-12-12T03:49:20.369Z,11.53
2022-12-12T03:51:49.572Z,12.20
2022-12-12T03:54:19.466Z,12.67
2022-12-12T03:56:48.767Z,12.40
2022-12-12T03:59:24.071Z,12.50
2022-12-12T04:01:58.821Z,12.10
2022-12-12T04:04:30.383Z,14.23
2022-12-12T04:07:00.239Z,13.27
2022-12-12T04:09:45.456Z,12.57
2022-12-12T04:12:47.084Z,11.67
2022-12-12T04:15:39.944Z,12.83
2022-12-12T04:18:14.197Z,11.57
2022-12-12T04:21:03.315Z,11.70
2022-12-12T04:23:38.300Z,11.77
2022-12-12T04:26:26.971Z,13.10
2022-12-12T04:29:06.484Z,11.40
2022-12-12T04:31:35.380Z,11.67
2022-12-12T04:34:05.468Z,11.60
2022-12-12T04:36:35.021Z,11.50
2022-12-12T04:39:03.148Z,11.23
2022-12-12T04:41:31.477Z,12.60
2022-12-12T04:43:59.549Z,12.73
2022-12-12T04:46:31.136Z,12.27
2022-12-12T04:49:00.990Z,12.43
2022-12-12T04:51:31.043Z,11.57
2022-12-12T04:54:03.810Z,12.10
2022-12-12T04:56:31.938Z,12.43
2022-12-12T04:59:00.006Z,13.00
2022-12-12T05:01:32.240Z,12.00
2022-12-12T05:04:02.284Z,11.53
2022-12-12T05:06:31.736Z,12.13
2022-12-12T05:09:01.284Z,12.40
2022-12-12T05:11:31.584Z,13.40
2022-12-12T05:14:00.009Z,11.73
2022-12-12T05:16:29.025Z,11.90
2022-12-12T05:18:57.189Z,11.30
2022-12-12T05:21:25.273Z,12.23
2022-12-12T05:23:53.361Z,12.80
2022-12-12T05:26:25.247Z,12.73
2022-12-12T05:28:53.433Z,12.17
2022-12-12T05:31:27.304Z,10.93
2022-12-12T05:33:55.404Z,12.63
2022-12-12T05:36:23.444Z,12.27
2022-12-12T05:38:52.046Z,11.13
2022-12-12T05:41:27.679Z,12.00
2022-12-12T05:43:57.148Z,12.63
2022-12-12T05:46:25.233Z,11.57
2022-12-12T05:48:53.388Z,10.90
2022-12-12T05:51:21.707Z,12.10
2022-12-12T05:53:49.859Z,11.57
2022-12-12T05:56:17.922Z,11.00
2022-12-12T05:58:46.138Z,11.67
2022-12-12T06:01:18.340Z,12.00
2022-12-12T06:03:52.371Z,11.37
2022-12-12T06:06:20.461Z,11.30
2022-12-12T06:08:48.494Z,11.03
2022-12-12T06:11:16.625Z,11.53
2022-12-12T06:13:44.707Z,10.70
2022-12-12T06:16:14.137Z,11.00
2022-12-12T06:18:43.681Z,10.80
2022-12-12T06:21:12.839Z,11.07
2022-12-12T06:23:41.892Z,11.97
2022-12-12T06:26:12.050Z,11.10
2022-12-12T06:28:40.237Z,10.90
2022-12-12T06:31:11.864Z,12.27
2022-12-12T06:33:40.598Z,11.70
2022-12-12T06:36:11.763Z,11.20
2022-12-12T06:38:45.909Z,11.67
2022-12-12T06:41:16.856Z,10.37
2022-12-12T06:43:44.978Z,11.30
2022-12-12T06:46:15.351Z,10.93
2022-12-12T06:48:46.715Z,10.40
2022-12-12T06:51:18.206Z,12.00
2022-12-12T06:53:46.283Z,10.83
2022-12-12T06:56:15.848Z,11.37
2022-12-12T06:58:43.894Z,11.93
2022-12-12T07:01:12.578Z,11.50
2022-12-12T07:03:40.768Z,10.33
2022-12-12T07:06:09.450Z,10.07
2022-12-12T07:08:39.424Z,10.50
2022-12-12T07:11:08.609Z,10.97
2022-12-12T07:13:36.716Z,10.70
2022-12-12T07:16:05.071Z,10.37
2022-12-12T07:18:33.205Z,11.37
2022-12-12T07:21:01.369Z,11.80
2022-12-12T07:23:29.520Z,10.17
2022-12-12T07:25:59.460Z,10.70
2022-12-12T07:28:27.881Z,10.57
2022-12-12T07:30:55.970Z,11.93
2022-12-12T07:33:28.362Z,11.57
2022-12-12T07:36:01.427Z,11.43
2022-12-12T07:38:29.551Z,10.90
2022-12-12T07:41:03.977Z,11.03
2022-12-12T07:43:32.897Z,11.00
2022-12-12T07:46:07.816Z,9.80
2022-12-12T07:48:35.921Z,9.87
2022-12-12T07:51:04.478Z,11.43
2022-12-12T07:53:32.497Z,10.90
2022-12-12T07:56:01.988Z,10.73
2022-12-12T07:58:30.015Z,10.67
2022-12-12T08:00:58.170Z,10.83
2022-12-12T08:03:26.289Z,10.07
2022-12-12T08:06:02.046Z,10.70
2022-12-12T08:08:37.922Z,10.07
2022-12-12T08:11:08.396Z,10.50
2022-12-12T08:13:36.712Z,11.60
2022-12-12T08:16:05.254Z,10.70
2022-12-12T08:18:33.360Z,10.10
2022-12-12T08:21:01.429Z,10.80
2022-12-12T08:23:29.502Z,10.50
2022-12-12T08:25:57.853Z,10.67
2022-12-12T08:28:27.283Z,11.00
2022-12-12T08:30:55.523Z,11.10
2022-12-12T08:33:23.540Z,9.30
2022-12-12T08:35:51.580Z,9.40
2022-12-12T08:38:19.730Z,9.90
2022-12-12T08:40:47.993Z,10.77
2022-12-12T08:43:16.062Z,10.47
2022-12-12T08:45:45.657Z,10.40
2022-12-12T08:48:13.892Z,10.97
2022-12-12T08:50:42.148Z,10.20
2022-12-12T08:53:10.476Z,10.60
2022-12-12T08:55:38.578Z,10.80
2022-12-12T08:58:06.612Z,10.63
2022-12-12T09:00:34.689Z,10.40
2022-12-12T09:03:04.306Z,10.00
2022-12-12T09:05:32.558Z,9.80
2022-12-12T09:08:00.728Z,10.60
2022-12-12T09:10:29.056Z,11.30
2022-12-12T09:12:57.129Z,9.57
2022-12-12T09:15:25.714Z,10.57
2022-12-12T09:17:53.796Z,9.60
2022-12-12T09:20:23.330Z,10.07
2022-12-12T09:22:51.405Z,10.60
2022-12-12T09:25:21.795Z,9.90
2022-12-12T09:27:49.913Z,10.30
2022-12-12T09:30:18.135Z,10.57
2022-12-12T09:32:46.541Z,10.20
2022-12-12T09:35:31.699Z,10.30
2022-12-12T09:38:02.767Z,10.90
2022-12-12T09:40:35.164Z,10.70
2022-12-12T09:43:03.241Z,10.07
2022-12-12T09:45:31.466Z,10.60
2022-12-12T09:48:00.681Z,11.47
2022-12-12T09:50:32.428Z,11.90
2022-12-12T09:53:02.208Z,10.97
2022-12-12T09:55:38.493Z,10.63
2022-12-12T09:58:08.046Z,11.00
2022-12-12T10:00:37.774Z,10.83
2022-12-12T10:03:30.702Z,10.23
2022-12-12T10:06:35.833Z,10.40
2022-12-12T10:08:59.092Z,10.40
2022-12-12T10:11:47.104Z,10.30
2022-12-12T10:14:15.371Z,10.73
2022-12-12T10:16:43.486Z,10.20
2022-12-12T10:19:15.111Z,10.30
2022-12-12T10:21:44.572Z,11.00
2022-12-12T10:24:17.355Z,10.70
2022-12-12T10:26:45.510Z,11.20
2022-12-12T10:29:21.719Z,10.80
2022-12-12T10:31:53.080Z,10.07
2022-12-12T10:34:30.072Z,11.10
2022-12-12T10:37:09.071Z,11.60
2022-12-12T10:39:44.608Z,9.80
2022-12-12T10:42:15.616Z,10.87
2022-12-12T10:45:08.377Z,10.93
2022-12-12T10:47:36.442Z,11.23
2022-12-12T10:50:23.942Z,10.97
2022-12-12T10:52:53.483Z,10.50
2022-12-12T10:55:23.350Z,10.47
2022-12-12T10:58:01.292Z,11.17
2022-12-12T11:00:32.043Z,10.30
2022-12-12T11:03:00.634Z,10.57
2022-12-12T11:05:30.304Z,10.83
2022-12-12T11:08:04.076Z,10.47
2022-12-12T11:10:34.493Z,10.07
2022-12-12T11:13:03.731Z,10.30
2022-12-12T11:15:40.595Z,9.87
2022-12-12T11:18:11.784Z,11.07
2022-12-12T11:20:44.501Z,10.40
2022-12-12T11:23:18.494Z,10.67
2022-12-12T11:25:46.690Z,10.47
2022-12-12T11:28:18.031Z,9.70
2022-12-12T11:30:46.104Z,10.23
2022-12-12T11:33:19.375Z,9.67
2022-12-12T11:35:47.872Z,9.50
2022-12-12T11:38:18.851Z,8.97
2022-12-12T11:40:46.955Z,9.77
2022-12-12T11:43:25.856Z,10.00
2022-12-12T11:46:02.225Z,9.67
2022-12-12T11:48:41.131Z,9.90
2022-12-12T11:51:09.264Z,9.10
2022-12-12T11:53:39.819Z,9.13
2022-12-12T11:56:29.032Z,9.30
2022-12-12T11:59:02.879Z,9.37
2022-12-12T12:01:35.429Z,8.93
2022-12-12T12:04:10.837Z,9.70
2022-12-12T12:06:45.825Z,9.50
2022-12-12T12:09:23.884Z,9.23
2022-12-12T12:12:01.740Z,8.83
2022-12-12T12:14:38.005Z,9.63
2022-12-12T12:17:09.671Z,8.53
2022-12-12T12:19:40.307Z,9.53
2022-12-12T12:22:13.095Z,9.73
2022-12-12T12:24:54.502Z,8.50
2022-12-12T12:27:25.095Z,9.40
2022-12-12T12:30:14.459Z,8.50
2022-12-12T12:32:49.545Z,9.30
2022-12-12T12:35:26.719Z,9.17
2022-12-12T12:37:59.957Z,8.60
2022-12-12T12:40:36.290Z,8.73
2022-12-12T12:43:15.950Z,8.77
2022-12-12T12:45:46.619Z,9.57
2022-12-12T12:48:19.308Z,7.97
2022-12-12T12:50:49.763Z,8.40
2022-12-12T12:53:23.608Z,9.00
2022-12-12T12:55:54.325Z,7.90
2022-12-12T12:58:23.734Z,8.50
2022-12-12T13:00:57.404Z,8.30
2022-12-12T13:03:27.395Z,9.10
2022-12-12T13:06:02.634Z,8.30
2022-12-12T13:08:32.628Z,8.30
2022-12-12T13:11:04.420Z,7.83
2022-12-12T13:13:33.111Z,8.47
2022-12-12T13:16:02.700Z,7.93
2022-12-12T13:18:44.414Z,7.77
2022-12-12T13:21:15.804Z,8.07
2022-12-12T13:23:51.460Z,8.43
2022-12-12T13:26:29.269Z,7.83
2022-12-12T13:28:59.780Z,8.20
2022-12-12T13:31:53.872Z,7.63
2022-12-12T13:34:22.930Z,7.93
2022-12-12T13:36:51.908Z,7.77
2022-12-12T13:39:27.962Z,7.70
2022-12-12T13:41:59.150Z,7.93
2022-12-12T13:44:37.960Z,7.50
2022-12-12T13:48:03.480Z,7.90
2022-12-12T13:50:51.052Z,7.70
2022-12-12T13:53:20.387Z,6.87
2022-12-12T13:56:02.316Z,6.80
2022-12-12T13:58:36.060Z,7.40
2022-12-12T14:01:37.567Z,7.37
2022-12-12T14:04:05.741Z,8.20
2022-12-12T14:06:33.803Z,6.80
2022-12-12T14:09:01.840Z,6.67
2022-12-12T14:11:34.550Z,6.80
2022-12-12T14:14:16.365Z,6.53
2022-12-12T14:16:47.190Z,6.47
2022-12-12T14:19:29.450Z,6.60
2022-12-12T14:21:57.777Z,6.67
2022-12-12T14:24:59.491Z,6.20
2022-12-12T14:28:08.529Z,6.67
2022-12-12T14:30:45.683Z,5.60
2022-12-12T14:33:36.364Z,5.83
2022-12-12T14:36:08.756Z,6.50
2022-12-12T14:38:40.497Z,6.13
2022-12-12T14:41:11.579Z,6.37
2022-12-12T14:43:42.882Z,5.90
2022-12-12T14:46:16.252Z,6.37
2022-12-12T14:48:44.727Z,5.97
2022-12-12T14:51:15.860Z,5.80
2022-12-12T14:53:48.075Z,5.87
2022-12-12T14:56:17.492Z,5.83
2022-12-12T14:58:47.868Z,5.80
2022-12-12T15:01:19.786Z,5.60
2022-12-12T15:03:49.857Z,5.70
2022-12-12T15:06:28.360Z,5.67
2022-12-12T15:08:57.431Z,6.00
2022-12-12T15:11:26.474Z,6.03
2022-12-12T15:13:55.173Z,5.90
2022-12-12T15:16:30.010Z,5.47
2022-12-12T15:18:58.424Z,5.20
2022-12-12T15:21:26.700Z,6.20
2022-12-12T15:23:54.796Z,5.37
2022-12-12T15:26:26.349Z,5.90
2022-12-12T15:28:54.514Z,5.67
2022-12-12T15:31:22.656Z,5.33
2022-12-12T15:33:52.146Z,5.67
2022-12-12T15:36:25.042Z,5.30
2022-12-12T15:39:15.582Z,4.97
2022-12-12T15:41:43.754Z,4.23
2022-12-12T15:44:16.143Z,5.77
2022-12-12T15:46:44.323Z,5.70
2022-12-12T15:49:38.644Z,4.83
2022-12-12T15:52:11.409Z,5.30
2022-12-12T15:54:39.502Z,5.40
2022-12-12T15:57:07.934Z,5.60
2022-12-12T15:59:35.972Z,5.17
2022-12-12T16:02:24.946Z,4.67
2022-12-12T16:05:05.185Z,5.10
2022-12-12T16:07:37.567Z,5.00
2022-12-12T16:10:25.577Z,6.00
2022-12-12T16:12:58.521Z,5.77
2022-12-12T16:15:31.845Z,5.20
2022-12-12T16:18:01.470Z,5.20
2022-12-12T16:20:30.982Z,5.60
2022-12-12T16:23:09.969Z,5.23
2022-12-12T16:25:38.015Z,5.37
2022-12-12T16:28:25.019Z,5.80
2022-12-12T16:30:56.277Z,4.73
2022-12-12T16:33:30.049Z,5.63
2022-12-12T16:36:00.488Z,5.40
2022-12-12T16:38:29.344Z,5.40
2022-12-12T16:40:59.542Z,5.40
2022-12-12T16:43:27.629Z,5.67
2022-12-12T16:45:56.435Z,5.00
2022-12-12T16:48:25.173Z,4.83
2022-12-12T16:50:53.949Z,5.27
2022-12-12T16:53:28.326Z,5.80
2022-12-12T16:56:02.497Z,6.10
2022-12-12T16:58:30.788Z,5.50
2022-12-12T17:01:00.361Z,6.70
2022-12-12T17:03:29.920Z,6.43
2022-12-12T17:05:57.988Z,6.30
2022-12-12T17:08:27.619Z,6.80
2022-12-12T17:11:09.292Z,6.70
2022-12-12T17:13:38.899Z,6.07
2022-12-12T17:16:07.408Z,6.63
2022-12-12T17:18:35.868Z,6.53
2022-12-12T17:21:03.998Z,6.90
2022-12-12T17:23:33.503Z,6.90
2022-12-12T17:26:04.639Z,7.10
2022-12-12T17:28:33.331Z,7.30
2022-12-12T17:31:01.570Z,7.27
2022-12-12T17:33:29.856Z,7.20
2022-12-12T17:36:02.150Z,6.83
2022-12-12T17:38:31.000Z,6.57
2022-12-12T17:41:04.175Z,6.97
2022-12-12T17:43:32.276Z,6.70
2022-12-12T17:46:01.157Z,7.50
2022-12-12T17:48:30.589Z,7.30
2022-12-12T17:51:00.080Z,7.50
2022-12-12T17:53:32.601Z,6.53
2022-12-12T17:56:07.823Z,6.60
2022-12-12T17:58:41.072Z,8.10
2022-12-12T18:01:15.576Z,7.50
2022-12-12T18:03:50.027Z,7.70
2022-12-12T18:06:18.422Z,7.77
2022-12-12T18:08:46.674Z,7.93
2022-12-12T18:11:17.109Z,7.53
2022-12-12T18:13:45.360Z,8.70
2022-12-12T18:16:13.836Z,8.50
2022-12-12T18:18:41.979Z,8.23
2022-12-12T18:21:12.955Z,8.23
2022-12-12T18:23:44.022Z,8.73
2022-12-12T18:26:22.238Z,8.13
2022-12-12T18:28:50.863Z,8.60
2022-12-12T18:31:19.156Z,8.73
2022-12-12T18:33:48.299Z,9.50
2022-12-12T18:36:17.433Z,8.40
2022-12-12T18:38:47.733Z,8.03
2022-12-12T18:41:16.418Z,9.07
2022-12-12T18:43:51.070Z,8.87
2022-12-12T18:46:20.710Z,8.30
2022-12-12T18:48:49.263Z,8.60
2022-12-12T18:51:18.860Z,9.17
2022-12-12T18:53:47.111Z,9.27
2022-12-12T18:56:16.738Z,8.63
2022-12-12T18:58:46.177Z,9.40
2022-12-12T19:01:15.244Z,8.70
2022-12-12T19:03:43.597Z,9.07
2022-12-12T19:06:13.473Z,9.07
2022-12-12T19:08:41.818Z,8.63
2022-12-12T19:11:12.374Z,8.50
2022-12-12T19:13:40.867Z,9.17
2022-12-12T19:16:11.775Z,8.80
2022-12-12T19:18:39.910Z,9.23
2022-12-12T19:21:08.354Z,8.77
2022-12-12T19:23:36.563Z,9.00
2022-12-12T19:26:12.037Z,8.97
2022-12-12T19:28:40.150Z,9.50
2022-12-12T19:31:08.720Z,9.87
2022-12-12T19:33:38.231Z,9.80
2022-12-12T19:36:13.190Z,9.73
2022-12-12T19:38:41.359Z,9.03
2022-12-12T19:41:09.898Z,10.20
2022-12-12T19:43:37.990Z,9.70
2022-12-12T19:46:07.273Z,9.17
2022-12-12T19:48:35.489Z,9.70
2022-12-12T19:51:08.752Z,9.63
2022-12-12T19:53:38.302Z,9.07
2022-12-12T19:56:06.624Z,8.33
2022-12-12T19:58:38.412Z,10.00
2022-12-12T20:01:08.634Z,10.17
2022-12-12T20:03:37.088Z,9.37
2022-12-12T20:06:06.531Z,10.00
2022-12-12T20:08:36.304Z,9.40
2022-12-12T20:11:05.717Z,9.20
2022-12-12T20:13:33.923Z,10.70
2022-12-12T20:16:05.764Z,9.97
2022-12-12T20:18:33.890Z,9.03
2022-12-12T20:21:03.555Z,10.23
2022-12-12T20:23:46.816Z,10.23
2022-12-12T20:26:19.080Z,10.63
2022-12-12T20:28:47.212Z,10.30
2022-12-12T20:31:16.792Z,10.00
2022-12-12T20:33:44.918Z,11.30
2022-12-12T20:36:13.985Z,10.50
2022-12-12T20:38:43.552Z,10.07
2022-12-12T20:41:11.818Z,9.83
2022-12-12T20:43:39.940Z,10.50
2022-12-12T20:46:12.161Z,10.00
2022-12-12T20:48:40.407Z,10.50
2022-12-12T20:51:31.063Z,10.10
2022-12-12T20:53:58.783Z,10.73
2022-12-12T20:56:27.009Z,10.90
2022-12-12T20:59:18.170Z,9.70
2022-12-12T21:01:52.249Z,11.00
2022-12-12T21:04:20.679Z,10.30
2022-12-12T21:06:49.791Z,10.30
2022-12-12T21:09:24.500Z,9.87
2022-12-12T21:11:54.005Z,10.47
2022-12-12T21:14:22.158Z,11.10
2022-12-12T21:16:50.235Z,9.80
2022-12-12T21:19:19.283Z,10.83
2022-12-12T21:21:48.011Z,11.03
2022-12-12T21:24:16.822Z,10.93
2022-12-12T21:26:46.503Z,11.30
2022-12-12T21:29:15.525Z,11.50
2022-12-12T21:31:50.252Z,10.20
2022-12-12T21:34:19.580Z,10.70
2022-12-12T21:36:47.654Z,11.17
2022-12-12T21:39:15.781Z,11.93
2022-12-12T21:41:48.556Z,10.37
2022-12-12T21:44:16.748Z,11.40
2022-12-12T21:46:44.950Z,10.33
2022-12-12T21:49:27.325Z,11.00
2022-12-12T21:51:55.946Z,10.60
2022-12-12T21:54:24.303Z,10.50
2022-12-12T21:56:53.932Z,11.10
2022-12-12T21:59:22.139Z,9.60
2022-12-12T22:01:50.254Z,10.43
2022-12-12T22:04:18.383Z,10.37
2022-12-12T22:06:47.110Z,10.90
2022-12-12T22:09:15.307Z,10.57
2022-12-12T22:11:49.220Z,10.47
2022-12-12T22:14:21.548Z,10.50
2022-12-12T22:16:50.234Z,10.20
2022-12-12T22:19:21.071Z,9.80
2022-12-12T22:21:50.278Z,10.37
2022-12-12T22:24:19.082Z,10.80
2022-12-12T22:26:53.819Z,9.93
2022-12-12T22:29:23.293Z,9.60
2022-12-12T22:31:52.246Z,10.40
2022-12-12T22:34:21.564Z,10.33
2022-12-12T22:36:49.727Z,10.67
2022-12-12T22:39:18.832Z,10.20
2022-12-12T22:41:46.931Z,10.33
2022-12-12T22:44:16.851Z,9.73
2022-12-12T22:46:54.919Z,10.80
2022-12-12T22:49:26.738Z,10.50
2022-12-12T22:51:55.163Z,8.93
2022-12-12T22:54:23.357Z,10.23
2022-12-12T22:56:51.479Z,9.40
2022-12-12T22:59:19.567Z,9.67
2022-12-12T23:01:48.998Z,9.67
2022-12-12T23:04:17.253Z,10.43
2022-12-12T23:06:45.326Z,9.50
2022-12-12T23:09:15.435Z,10.77
2022-12-12T23:11:43.942Z,9.20
2022-12-12T23:14:14.306Z,9.00
2022-12-12T23:16:42.559Z,9.57
2022-12-12T23:19:12.115Z,10.23
2022-12-12T23:21:40.177Z,9.63
2022-12-12T23:24:08.967Z,9.63
2022-12-12T23:26:37.202Z,8.97
2022-12-12T23:29:09.427Z,9.43
2022-12-12T23:31:40.709Z,9.07
2022-12-12T23:34:13.247Z,9.90
2022-12-12T23:36:42.284Z,9.00
2022-12-12T23:39:11.771Z,9.73
2022-12-12T23:41:39.875Z,8.47
2022-12-12T23:44:08.018Z,9.40
2022-12-12T23:46:36.487Z,9.37
2022-12-12T23:49:14.618Z,9.23
2022-12-12T23:51:43.994Z,8.80
2022-12-12T23:54:13.307Z,9.70
2022-12-12T23:56:41.343Z,9.37
2022-12-12T23:59:15.479Z,9.17
